sensor_id;sensor_type;location;lat;lon;timestamp;temperature;humidity
69731;SHT31;56996;48.138;11.538;2024-02-04T00:01:31;7.85;70.50
69731;SHT31;56996;48.138;11.538;2024-02-04T00:03:58;7.82;70.56
69731;SHT31;56996;48.138;11.538;2024-02-04T00:06:25;7.78;70.79
69731;SHT31;56996;48.138;11.538;2024-02-04T00:08:52;7.77;70.72
69731;SHT31;56996;48.138;11.538;2024-02-04T00:11:19;7.77;70.82
69731;SHT31;56996;48.138;11.538;2024-02-04T00:13:45;7.74;70.81
69731;SHT31;56996;48.138;11.538;2024-02-04T00:16:12;7.73;70.93
69731;SHT31;56996;48.138;11.538;2024-02-04T00:18:39;7.71;70.98
69731;SHT31;56996;48.138;11.538;2024-02-04T00:21:06;7.72;70.90
69731;SHT31;56996;48.138;11.538;2024-02-04T00:23:33;7.70;71.17
69731;SHT31;56996;48.138;11.538;2024-02-04T00:26:00;7.73;70.96
69731;SHT31;56996;48.138;11.538;2024-02-04T00:28:26;7.77;70.81
69731;SHT31;56996;48.138;11.538;2024-02-04T00:30:54;7.78;70.81
69731;SHT31;56996;48.138;11.538;2024-02-04T00:33:25;7.74;70.89
69731;SHT31;56996;48.138;11.538;2024-02-04T00:35:52;7.77;70.89
69731;SHT31;56996;48.138;11.538;2024-02-04T00:38:19;7.75;71.00
69731;SHT31;56996;48.138;11.538;2024-02-04T00:40:46;7.71;71.10
69731;SHT31;56996;48.138;11.538;2024-02-04T00:43:12;7.76;70.96
69731;SHT31;56996;48.138;11.538;2024-02-04T00:45:39;7.79;70.87
69731;SHT31;56996;48.138;11.538;2024-02-04T00:48:06;7.79;70.92
69731;SHT31;56996;48.138;11.538;2024-02-04T00:50:33;7.76;71.03
69731;SHT31;56996;48.138;11.538;2024-02-04T00:53:00;7.76;71.02
69731;SHT31;56996;48.138;11.538;2024-02-04T00:55:26;7.75;71.07
69731;SHT31;56996;48.138;11.538;2024-02-04T00:57:53;7.74;71.09
69731;SHT31;56996;48.138;11.538;2024-02-04T01:00:22;7.74;71.10
69731;SHT31;56996;48.138;11.538;2024-02-04T01:02:48;7.77;71.10
69731;SHT31;56996;48.138;11.538;2024-02-04T01:08:10;7.73;71.16
69731;SHT31;56996;48.138;11.538;2024-02-04T01:10:36;7.71;71.19
69731;SHT31;56996;48.138;11.538;2024-02-04T01:13:03;7.68;71.26
69731;SHT31;56996;48.138;11.538;2024-02-04T01:15:30;7.63;71.41
69731;SHT31;56996;48.138;11.538;2024-02-04T01:17:57;7.62;71.44
69731;SHT31;56996;48.138;11.538;2024-02-04T01:20:24;7.60;71.51
69731;SHT31;56996;48.138;11.538;2024-02-04T01:22:50;7.52;71.82
69731;SHT31;56996;48.138;11.538;2024-02-04T01:25:17;7.50;71.78
69731;SHT31;56996;48.138;11.538;2024-02-04T01:27:44;7.48;71.71
69731;SHT31;56996;48.138;11.538;2024-02-04T01:30:11;7.46;71.75
69731;SHT31;56996;48.138;11.538;2024-02-04T01:32:38;7.41;71.82
69731;SHT31;56996;48.138;11.538;2024-02-04T01:35:05;7.34;71.97
69731;SHT31;56996;48.138;11.538;2024-02-04T01:37:32;7.28;72.10
69731;SHT31;56996;48.138;11.538;2024-02-04T01:39:59;7.25;72.21
69731;SHT31;56996;48.138;11.538;2024-02-04T01:42:26;7.21;72.40
69731;SHT31;56996;48.138;11.538;2024-02-04T01:44:53;7.18;72.42
69731;SHT31;56996;48.138;11.538;2024-02-04T01:47:19;7.13;72.66
69731;SHT31;56996;48.138;11.538;2024-02-04T01:49:47;7.09;72.67
69731;SHT31;56996;48.138;11.538;2024-02-04T01:52:14;7.08;72.69
69731;SHT31;56996;48.138;11.538;2024-02-04T01:54:41;7.08;72.74
69731;SHT31;56996;48.138;11.538;2024-02-04T01:57:09;7.12;72.59
69731;SHT31;56996;48.138;11.538;2024-02-04T01:59:38;7.17;72.43
69731;SHT31;56996;48.138;11.538;2024-02-04T02:02:06;7.20;72.40
69731;SHT31;56996;48.138;11.538;2024-02-04T02:04:33;7.20;72.34
69731;SHT31;56996;48.138;11.538;2024-02-04T02:07:00;7.23;72.23
69731;SHT31;56996;48.138;11.538;2024-02-04T02:09:29;7.22;72.20
69731;SHT31;56996;48.138;11.538;2024-02-04T02:14:58;7.23;72.00
69731;SHT31;56996;48.138;11.538;2024-02-04T02:17:42;7.24;72.00
69731;SHT31;56996;48.138;11.538;2024-02-04T02:20:19;7.27;71.98
69731;SHT31;56996;48.138;11.538;2024-02-04T02:25:36;7.24;71.97
69731;SHT31;56996;48.138;11.538;2024-02-04T02:28:04;7.21;72.08
69731;SHT31;56996;48.138;11.538;2024-02-04T02:30:31;7.20;72.04
69731;SHT31;56996;48.138;11.538;2024-02-04T02:32:58;7.19;72.12
69731;SHT31;56996;48.138;11.538;2024-02-04T02:35:25;7.18;72.09
69731;SHT31;56996;48.138;11.538;2024-02-04T02:40:38;7.24;71.89
69731;SHT31;56996;48.138;11.538;2024-02-04T02:43:11;7.29;71.75
69731;SHT31;56996;48.138;11.538;2024-02-04T02:45:42;7.32;71.68
69731;SHT31;56996;48.138;11.538;2024-02-04T02:48:10;7.33;71.60
69731;SHT31;56996;48.138;11.538;2024-02-04T02:50:37;7.35;71.50
69731;SHT31;56996;48.138;11.538;2024-02-04T02:53:04;7.36;71.49
69731;SHT31;56996;48.138;11.538;2024-02-04T02:55:31;7.32;71.52
69731;SHT31;56996;48.138;11.538;2024-02-04T02:57:58;7.30;71.60
69731;SHT31;56996;48.138;11.538;2024-02-04T03:00:25;7.36;71.46
69731;SHT31;56996;48.138;11.538;2024-02-04T03:02:52;7.41;71.32
69731;SHT31;56996;48.138;11.538;2024-02-04T03:05:18;7.46;71.17
69731;SHT31;56996;48.138;11.538;2024-02-04T03:07:45;7.48;71.13
69731;SHT31;56996;48.138;11.538;2024-02-04T03:10:12;7.45;71.20
69731;SHT31;56996;48.138;11.538;2024-02-04T03:12:39;7.48;71.17
69731;SHT31;56996;48.138;11.538;2024-02-04T03:15:06;7.53;71.05
69731;SHT31;56996;48.138;11.538;2024-02-04T03:17:33;7.55;71.00
69731;SHT31;56996;48.138;11.538;2024-02-04T03:20:00;7.56;71.01
69731;SHT31;56996;48.138;11.538;2024-02-04T03:22:27;7.59;70.96
69731;SHT31;56996;48.138;11.538;2024-02-04T03:24:54;7.61;70.86
69731;SHT31;56996;48.138;11.538;2024-02-04T03:27:21;7.58;70.99
69731;SHT31;56996;48.138;11.538;2024-02-04T03:29:48;7.60;70.92
69731;SHT31;56996;48.138;11.538;2024-02-04T03:32:15;7.64;70.74
69731;SHT31;56996;48.138;11.538;2024-02-04T03:34:41;7.66;70.66
69731;SHT31;56996;48.138;11.538;2024-02-04T03:37:09;7.65;70.70
69731;SHT31;56996;48.138;11.538;2024-02-04T03:39:36;7.59;70.80
69731;SHT31;56996;48.138;11.538;2024-02-04T03:42:03;7.59;70.80
69731;SHT31;56996;48.138;11.538;2024-02-04T03:44:30;7.61;70.76
69731;SHT31;56996;48.138;11.538;2024-02-04T03:46:57;7.59;70.83
69731;SHT31;56996;48.138;11.538;2024-02-04T03:49:23;7.60;70.80
69731;SHT31;56996;48.138;11.538;2024-02-04T03:51:50;7.59;70.85
69731;SHT31;56996;48.138;11.538;2024-02-04T03:54:18;7.58;70.91
69731;SHT31;56996;48.138;11.538;2024-02-04T03:56:45;7.57;70.98
69731;SHT31;56996;48.138;11.538;2024-02-04T03:59:12;7.60;70.90
69731;SHT31;56996;48.138;11.538;2024-02-04T04:01:39;7.62;70.86
69731;SHT31;56996;48.138;11.538;2024-02-04T04:04:06;7.62;70.89
69731;SHT31;56996;48.138;11.538;2024-02-04T04:06:33;7.68;70.78
69731;SHT31;56996;48.138;11.538;2024-02-04T04:09:00;7.71;70.70
69731;SHT31;56996;48.138;11.538;2024-02-04T04:11:27;7.71;70.70
69731;SHT31;56996;48.138;11.538;2024-02-04T04:13:53;7.72;70.72
69731;SHT31;56996;48.138;11.538;2024-02-04T04:16:20;7.74;70.70
69731;SHT31;56996;48.138;11.538;2024-02-04T04:18:48;7.75;70.69
69731;SHT31;56996;48.138;11.538;2024-02-04T04:21:16;7.73;71.08
69731;SHT31;56996;48.138;11.538;2024-02-04T04:23:43;7.76;71.41
69731;SHT31;56996;48.138;11.538;2024-02-04T04:26:10;7.76;71.48
69731;SHT31;56996;48.138;11.538;2024-02-04T04:28:37;7.77;71.78
69731;SHT31;56996;48.138;11.538;2024-02-04T04:31:04;7.76;71.64
69731;SHT31;56996;48.138;11.538;2024-02-04T04:33:31;7.76;71.80
69731;SHT31;56996;48.138;11.538;2024-02-04T04:35:58;7.76;71.75
69731;SHT31;56996;48.138;11.538;2024-02-04T04:38:25;7.74;71.84
69731;SHT31;56996;48.138;11.538;2024-02-04T04:40:51;7.75;71.78
69731;SHT31;56996;48.138;11.538;2024-02-04T04:43:18;7.74;71.85
69731;SHT31;56996;48.138;11.538;2024-02-04T04:45:45;7.72;72.15
69731;SHT31;56996;48.138;11.538;2024-02-04T04:48:12;7.74;72.18
69731;SHT31;56996;48.138;11.538;2024-02-04T04:50:39;7.77;72.10
69731;SHT31;56996;48.138;11.538;2024-02-04T04:53:06;7.79;72.07
69731;SHT31;56996;48.138;11.538;2024-02-04T04:55:33;7.82;71.96
69731;SHT31;56996;48.138;11.538;2024-02-04T04:57:59;7.83;71.88
69731;SHT31;56996;48.138;11.538;2024-02-04T05:00:27;7.82;71.78
69731;SHT31;56996;48.138;11.538;2024-02-04T05:02:53;7.79;71.54
69731;SHT31;56996;48.138;11.538;2024-02-04T05:05:20;7.81;71.43
69731;SHT31;56996;48.138;11.538;2024-02-04T05:07:47;7.80;71.57
69731;SHT31;56996;48.138;11.538;2024-02-04T05:10:14;7.80;71.62
69731;SHT31;56996;48.138;11.538;2024-02-04T05:12:41;7.79;71.71
69731;SHT31;56996;48.138;11.538;2024-02-04T05:15:08;7.78;71.79
69731;SHT31;56996;48.138;11.538;2024-02-04T05:17:35;7.76;71.64
69731;SHT31;56996;48.138;11.538;2024-02-04T05:20:02;7.73;71.64
69731;SHT31;56996;48.138;11.538;2024-02-04T05:22:30;7.72;71.70
69731;SHT31;56996;48.138;11.538;2024-02-04T05:24:56;7.71;71.74
69731;SHT31;56996;48.138;11.538;2024-02-04T05:27:23;7.72;71.74
69731;SHT31;56996;48.138;11.538;2024-02-04T05:29:50;7.76;71.88
69731;SHT31;56996;48.138;11.538;2024-02-04T05:32:17;7.80;71.74
69731;SHT31;56996;48.138;11.538;2024-02-04T05:34:43;7.80;71.97
69731;SHT31;56996;48.138;11.538;2024-02-04T05:37:10;7.81;72.14
69731;SHT31;56996;48.138;11.538;2024-02-04T05:39:37;7.85;72.25
69731;SHT31;56996;48.138;11.538;2024-02-04T05:42:04;7.83;72.46
69731;SHT31;56996;48.138;11.538;2024-02-04T05:44:30;7.87;72.70
69731;SHT31;56996;48.138;11.538;2024-02-04T05:46:57;7.88;72.84
69731;SHT31;56996;48.138;11.538;2024-02-04T05:49:24;7.88;72.81
69731;SHT31;56996;48.138;11.538;2024-02-04T05:51:50;7.91;72.98
69731;SHT31;56996;48.138;11.538;2024-02-04T05:54:17;7.91;73.00
69731;SHT31;56996;48.138;11.538;2024-02-04T05:56:44;7.90;73.08
69731;SHT31;56996;48.138;11.538;2024-02-04T05:59:10;7.92;73.40
69731;SHT31;56996;48.138;11.538;2024-02-04T06:01:37;7.92;73.58
69731;SHT31;56996;48.138;11.538;2024-02-04T06:04:04;7.96;73.62
69731;SHT31;56996;48.138;11.538;2024-02-04T06:06:31;7.94;73.61
69731;SHT31;56996;48.138;11.538;2024-02-04T06:08:57;7.93;73.73
69731;SHT31;56996;48.138;11.538;2024-02-04T06:11:24;7.93;73.88
69731;SHT31;56996;48.138;11.538;2024-02-04T06:13:51;7.93;73.97
69731;SHT31;56996;48.138;11.538;2024-02-04T06:16:18;7.89;74.23
69731;SHT31;56996;48.138;11.538;2024-02-04T06:18:44;7.86;74.49
69731;SHT31;56996;48.138;11.538;2024-02-04T06:21:11;7.89;74.39
69731;SHT31;56996;48.138;11.538;2024-02-04T06:23:38;7.89;74.34
69731;SHT31;56996;48.138;11.538;2024-02-04T06:26:06;7.89;74.38
69731;SHT31;56996;48.138;11.538;2024-02-04T06:28:32;7.88;74.54
69731;SHT31;56996;48.138;11.538;2024-02-04T06:30:59;7.91;74.46
69731;SHT31;56996;48.138;11.538;2024-02-04T06:33:26;7.94;74.21
69731;SHT31;56996;48.138;11.538;2024-02-04T06:35:53;7.97;73.93
69731;SHT31;56996;48.138;11.538;2024-02-04T06:38:20;7.99;73.92
69731;SHT31;56996;48.138;11.538;2024-02-04T06:40:47;8.02;73.78
69731;SHT31;56996;48.138;11.538;2024-02-04T06:43:13;8.01;73.71
69731;SHT31;56996;48.138;11.538;2024-02-04T06:45:40;8.01;73.61
69731;SHT31;56996;48.138;11.538;2024-02-04T06:48:07;8.01;73.53
69731;SHT31;56996;48.138;11.538;2024-02-04T06:50:35;8.02;73.42
69731;SHT31;56996;48.138;11.538;2024-02-04T06:53:03;8.02;73.43
69731;SHT31;56996;48.138;11.538;2024-02-04T06:55:30;8.04;73.30
69731;SHT31;56996;48.138;11.538;2024-02-04T06:57:57;8.06;73.21
69731;SHT31;56996;48.138;11.538;2024-02-04T07:00:23;8.03;73.06
69731;SHT31;56996;48.138;11.538;2024-02-04T07:02:50;8.04;73.00
69731;SHT31;56996;48.138;11.538;2024-02-04T07:05:17;8.03;72.87
69731;SHT31;56996;48.138;11.538;2024-02-04T07:07:44;8.01;72.82
69731;SHT31;56996;48.138;11.538;2024-02-04T07:10:11;8.01;72.88
69731;SHT31;56996;48.138;11.538;2024-02-04T07:12:38;8.04;72.88
69731;SHT31;56996;48.138;11.538;2024-02-04T07:15:04;8.08;72.67
69731;SHT31;56996;48.138;11.538;2024-02-04T07:17:32;8.14;72.38
69731;SHT31;56996;48.138;11.538;2024-02-04T07:19:58;8.16;72.23
69731;SHT31;56996;48.138;11.538;2024-02-04T07:22:25;8.21;71.96
69731;SHT31;56996;48.138;11.538;2024-02-04T07:24:52;8.23;71.78
69731;SHT31;56996;48.138;11.538;2024-02-04T07:27:19;8.25;71.79
69731;SHT31;56996;48.138;11.538;2024-02-04T07:29:46;8.34;71.78
69731;SHT31;56996;48.138;11.538;2024-02-04T07:32:15;8.37;71.34
69731;SHT31;56996;48.138;11.538;2024-02-04T07:34:42;8.42;71.11
69731;SHT31;56996;48.138;11.538;2024-02-04T07:37:09;8.44;71.00
69731;SHT31;56996;48.138;11.538;2024-02-04T07:39:36;8.48;70.90
69731;SHT31;56996;48.138;11.538;2024-02-04T07:42:02;8.47;70.71
69731;SHT31;56996;48.138;11.538;2024-02-04T07:44:29;8.50;70.80
69731;SHT31;56996;48.138;11.538;2024-02-04T07:46:56;8.53;70.57
69731;SHT31;56996;48.138;11.538;2024-02-04T07:49:23;8.60;70.36
69731;SHT31;56996;48.138;11.538;2024-02-04T07:51:50;8.62;70.10
69731;SHT31;56996;48.138;11.538;2024-02-04T07:54:17;8.70;69.99
69731;SHT31;56996;48.138;11.538;2024-02-04T07:56:44;8.73;69.96
69731;SHT31;56996;48.138;11.538;2024-02-04T07:59:10;8.78;69.74
69731;SHT31;56996;48.138;11.538;2024-02-04T08:01:37;8.85;69.28
69731;SHT31;56996;48.138;11.538;2024-02-04T08:04:04;8.81;69.22
69731;SHT31;56996;48.138;11.538;2024-02-04T08:06:32;8.87;69.13
69731;SHT31;56996;48.138;11.538;2024-02-04T08:09:01;8.97;69.07
69731;SHT31;56996;48.138;11.538;2024-02-04T08:11:28;9.06;68.63
69731;SHT31;56996;48.138;11.538;2024-02-04T08:13:54;9.03;68.63
69731;SHT31;56996;48.138;11.538;2024-02-04T08:16:21;9.02;68.68
69731;SHT31;56996;48.138;11.538;2024-02-04T08:18:48;9.13;68.61
69731;SHT31;56996;48.138;11.538;2024-02-04T08:21:15;9.26;68.21
69731;SHT31;56996;48.138;11.538;2024-02-04T08:23:42;9.35;67.86
69731;SHT31;56996;48.138;11.538;2024-02-04T08:26:08;9.46;67.70
69731;SHT31;56996;48.138;11.538;2024-02-04T08:28:35;9.54;67.50
69731;SHT31;56996;48.138;11.538;2024-02-04T08:31:02;9.65;67.20
69731;SHT31;56996;48.138;11.538;2024-02-04T08:33:29;9.72;67.04
69731;SHT31;56996;48.138;11.538;2024-02-04T08:35:56;9.81;67.07
69731;SHT31;56996;48.138;11.538;2024-02-04T08:38:23;9.87;66.55
69731;SHT31;56996;48.138;11.538;2024-02-04T08:40:49;9.86;66.37
69731;SHT31;56996;48.138;11.538;2024-02-04T08:43:16;9.94;66.40
69731;SHT31;56996;48.138;11.538;2024-02-04T08:45:43;10.01;66.10
69731;SHT31;56996;48.138;11.538;2024-02-04T08:48:09;10.09;65.89
69731;SHT31;56996;48.138;11.538;2024-02-04T08:50:36;10.07;65.61
69731;SHT31;56996;48.138;11.538;2024-02-04T08:53:03;10.08;65.58
69731;SHT31;56996;48.138;11.538;2024-02-04T08:55:30;10.15;65.50
69731;SHT31;56996;48.138;11.538;2024-02-04T08:57:56;10.28;65.19
69731;SHT31;56996;48.138;11.538;2024-02-04T09:00:23;10.41;64.80
69731;SHT31;56996;48.138;11.538;2024-02-04T09:02:50;10.44;64.34
69731;SHT31;56996;48.138;11.538;2024-02-04T09:05:17;10.49;64.30
69731;SHT31;56996;48.138;11.538;2024-02-04T09:07:45;10.56;64.09
69731;SHT31;56996;48.138;11.538;2024-02-04T09:10:12;10.49;63.64
69731;SHT31;56996;48.138;11.538;2024-02-04T09:12:39;10.44;63.90
69731;SHT31;56996;48.138;11.538;2024-02-04T09:15:06;10.52;63.81
69731;SHT31;56996;48.138;11.538;2024-02-04T09:17:33;10.54;63.56
69731;SHT31;56996;48.138;11.538;2024-02-04T09:20:00;10.59;63.52
69731;SHT31;56996;48.138;11.538;2024-02-04T09:22:28;10.67;63.25
69731;SHT31;56996;48.138;11.538;2024-02-04T09:24:55;10.71;63.04
69731;SHT31;56996;48.138;11.538;2024-02-04T09:27:22;10.75;62.67
69731;SHT31;56996;48.138;11.538;2024-02-04T09:29:49;10.72;62.48
69731;SHT31;56996;48.138;11.538;2024-02-04T09:32:16;10.72;62.71
69731;SHT31;56996;48.138;11.538;2024-02-04T09:34:44;10.84;62.59
69731;SHT31;56996;48.138;11.538;2024-02-04T09:37:12;10.96;62.21
69731;SHT31;56996;48.138;11.538;2024-02-04T09:39:39;11.03;61.93
69731;SHT31;56996;48.138;11.538;2024-02-04T09:42:06;11.07;61.81
69731;SHT31;56996;48.138;11.538;2024-02-04T09:44:33;11.04;61.73
69731;SHT31;56996;48.138;11.538;2024-02-04T09:47:02;11.09;61.88
69731;SHT31;56996;48.138;11.538;2024-02-04T09:49:29;11.11;61.85
69731;SHT31;56996;48.138;11.538;2024-02-04T09:51:58;11.11;61.89
69731;SHT31;56996;48.138;11.538;2024-02-04T09:54:30;11.11;61.71
69731;SHT31;56996;48.138;11.538;2024-02-04T09:56:58;11.12;61.70
69731;SHT31;56996;48.138;11.538;2024-02-04T09:59:25;11.18;61.73
69731;SHT31;56996;48.138;11.538;2024-02-04T10:01:52;11.24;61.58
69731;SHT31;56996;48.138;11.538;2024-02-04T10:04:19;11.35;61.35
69731;SHT31;56996;48.138;11.538;2024-02-04T10:06:46;11.47;61.10
69731;SHT31;56996;48.138;11.538;2024-02-04T10:09:14;11.48;60.42
69731;SHT31;56996;48.138;11.538;2024-02-04T10:11:41;11.31;60.67
69731;SHT31;56996;48.138;11.538;2024-02-04T10:14:08;11.26;60.81
69731;SHT31;56996;48.138;11.538;2024-02-04T10:16:35;11.29;60.92
69731;SHT31;56996;48.138;11.538;2024-02-04T10:19:03;11.38;60.57
69731;SHT31;56996;48.138;11.538;2024-02-04T10:21:30;11.36;60.63
69731;SHT31;56996;48.138;11.538;2024-02-04T10:23:57;11.44;60.49
69731;SHT31;56996;48.138;11.538;2024-02-04T10:26:28;11.43;60.46
69731;SHT31;56996;48.138;11.538;2024-02-04T10:29:01;11.41;60.60
69731;SHT31;56996;48.138;11.538;2024-02-04T10:31:27;11.35;60.48
69731;SHT31;56996;48.138;11.538;2024-02-04T10:33:54;11.32;60.57
69731;SHT31;56996;48.138;11.538;2024-02-04T10:36:22;11.51;60.51
69731;SHT31;56996;48.138;11.538;2024-02-04T10:38:49;11.78;59.90
69731;SHT31;56996;48.138;11.538;2024-02-04T10:41:16;11.96;59.60
69731;SHT31;56996;48.138;11.538;2024-02-04T10:43:44;12.14;59.24
69731;SHT31;56996;48.138;11.538;2024-02-04T10:46:18;12.22;58.91
69731;SHT31;56996;48.138;11.538;2024-02-04T10:48:55;12.34;58.68
69731;SHT31;56996;48.138;11.538;2024-02-04T10:51:25;12.35;58.40
69731;SHT31;56996;48.138;11.538;2024-02-04T10:53:53;12.37;58.36
69731;SHT31;56996;48.138;11.538;2024-02-04T10:59:03;12.24;58.69
69731;SHT31;56996;48.138;11.538;2024-02-04T11:01:30;12.34;58.67
69731;SHT31;56996;48.138;11.538;2024-02-04T11:03:58;12.39;58.50
69731;SHT31;56996;48.138;11.538;2024-02-04T11:06:26;12.48;58.46
69731;SHT31;56996;48.138;11.538;2024-02-04T11:08:53;12.65;58.14
69731;SHT31;56996;48.138;11.538;2024-02-04T11:11:22;12.74;58.00
69731;SHT31;56996;48.138;11.538;2024-02-04T11:13:51;12.61;57.45
69731;SHT31;56996;48.138;11.538;2024-02-04T11:16:34;12.52;58.18
69731;SHT31;56996;48.138;11.538;2024-02-04T11:26:09;13.00;57.12
69731;SHT31;56996;48.138;11.538;2024-02-04T11:28:37;13.24;56.90
69731;SHT31;56996;48.138;11.538;2024-02-04T11:31:05;13.33;56.18
69731;SHT31;56996;48.138;11.538;2024-02-04T11:33:51;13.32;56.18
69731;SHT31;56996;48.138;11.538;2024-02-04T11:36:23;13.32;56.03
69731;SHT31;56996;48.138;11.538;2024-02-04T11:38:51;13.40;55.95
69731;SHT31;56996;48.138;11.538;2024-02-04T11:41:22;13.33;55.78
69731;SHT31;56996;48.138;11.538;2024-02-04T11:43:53;13.16;55.91
69731;SHT31;56996;48.138;11.538;2024-02-04T11:46:28;13.05;55.91
69731;SHT31;56996;48.138;11.538;2024-02-04T11:49:00;13.03;56.24
69731;SHT31;56996;48.138;11.538;2024-02-04T11:51:27;13.04;56.20
69731;SHT31;56996;48.138;11.538;2024-02-04T11:53:54;12.94;56.08
69731;SHT31;56996;48.138;11.538;2024-02-04T11:56:23;12.92;56.62
69731;SHT31;56996;48.138;11.538;2024-02-04T11:58:50;13.07;56.56
69731;SHT31;56996;48.138;11.538;2024-02-04T12:01:18;13.24;56.17
69731;SHT31;56996;48.138;11.538;2024-02-04T12:03:48;13.26;55.66
69731;SHT31;56996;48.138;11.538;2024-02-04T12:06:17;13.15;55.74
69731;SHT31;56996;48.138;11.538;2024-02-04T12:08:45;13.13;55.91
69731;SHT31;56996;48.138;11.538;2024-02-04T12:11:12;13.10;55.82
69731;SHT31;56996;48.138;11.538;2024-02-04T12:13:40;13.13;55.91
69731;SHT31;56996;48.138;11.538;2024-02-04T12:16:08;13.24;55.68
69731;SHT31;56996;48.138;11.538;2024-02-04T12:18:35;13.21;55.54
69731;SHT31;56996;48.138;11.538;2024-02-04T12:21:02;13.28;55.68
69731;SHT31;56996;48.138;11.538;2024-02-04T12:23:30;13.33;55.20
69731;SHT31;56996;48.138;11.538;2024-02-04T12:25:57;13.35;55.31
69731;SHT31;56996;48.138;11.538;2024-02-04T12:28:24;13.33;55.34
69731;SHT31;56996;48.138;11.538;2024-02-04T12:30:54;13.30;55.55
69731;SHT31;56996;48.138;11.538;2024-02-04T12:33:22;13.38;55.32
69731;SHT31;56996;48.138;11.538;2024-02-04T12:35:49;13.30;55.13
69731;SHT31;56996;48.138;11.538;2024-02-04T12:38:18;13.22;55.18
69731;SHT31;56996;48.138;11.538;2024-02-04T12:40:45;13.10;55.54
69731;SHT31;56996;48.138;11.538;2024-02-04T12:43:11;13.03;55.79
69731;SHT31;56996;48.138;11.538;2024-02-04T12:45:38;12.99;55.53
69731;SHT31;56996;48.138;11.538;2024-02-04T12:48:05;12.94;55.72
69731;SHT31;56996;48.138;11.538;2024-02-04T12:50:38;12.98;55.76
69731;SHT31;56996;48.138;11.538;2024-02-04T12:53:05;12.94;55.81
69731;SHT31;56996;48.138;11.538;2024-02-04T12:55:35;13.05;55.79
69731;SHT31;56996;48.138;11.538;2024-02-04T12:58:10;13.10;55.72
69731;SHT31;56996;48.138;11.538;2024-02-04T13:00:41;13.15;55.50
69731;SHT31;56996;48.138;11.538;2024-02-04T13:03:08;13.18;55.42
69731;SHT31;56996;48.138;11.538;2024-02-04T13:05:35;13.20;55.28
69731;SHT31;56996;48.138;11.538;2024-02-04T13:08:03;13.23;55.28
69731;SHT31;56996;48.138;11.538;2024-02-04T13:10:33;13.34;55.24
69731;SHT31;56996;48.138;11.538;2024-02-04T13:13:05;13.42;55.11
69731;SHT31;56996;48.138;11.538;2024-02-04T13:15:40;13.44;55.07
69731;SHT31;56996;48.138;11.538;2024-02-04T13:18:12;13.44;54.93
69731;SHT31;56996;48.138;11.538;2024-02-04T13:20:41;13.38;55.13
69731;SHT31;56996;48.138;11.538;2024-02-04T13:23:09;13.37;55.17
69731;SHT31;56996;48.138;11.538;2024-02-04T13:25:36;13.43;55.00
69731;SHT31;56996;48.138;11.538;2024-02-04T13:28:03;13.40;55.08
69731;SHT31;56996;48.138;11.538;2024-02-04T13:30:30;13.32;55.24
69731;SHT31;56996;48.138;11.538;2024-02-04T13:32:58;13.38;55.34
69731;SHT31;56996;48.138;11.538;2024-02-04T13:35:25;13.41;55.29
69731;SHT31;56996;48.138;11.538;2024-02-04T13:37:52;13.44;55.18
69731;SHT31;56996;48.138;11.538;2024-02-04T13:40:21;13.39;55.15
69731;SHT31;56996;48.138;11.538;2024-02-04T13:42:49;13.30;55.39
69731;SHT31;56996;48.138;11.538;2024-02-04T13:45:16;13.23;55.34
69731;SHT31;56996;48.138;11.538;2024-02-04T13:47:43;13.13;55.48
69731;SHT31;56996;48.138;11.538;2024-02-04T13:50:10;13.02;55.63
69731;SHT31;56996;48.138;11.538;2024-02-04T13:52:38;12.97;55.74
69731;SHT31;56996;48.138;11.538;2024-02-04T13:55:06;12.98;55.66
69731;SHT31;56996;48.138;11.538;2024-02-04T13:57:34;12.93;55.73
69731;SHT31;56996;48.138;11.538;2024-02-04T14:00:01;12.94;55.61
69731;SHT31;56996;48.138;11.538;2024-02-04T14:02:31;12.88;55.82
69731;SHT31;56996;48.138;11.538;2024-02-04T14:04:58;12.80;55.90
69731;SHT31;56996;48.138;11.538;2024-02-04T14:07:25;12.76;56.03
69731;SHT31;56996;48.138;11.538;2024-02-04T14:09:53;12.72;56.12
69731;SHT31;56996;48.138;11.538;2024-02-04T14:12:20;12.70;56.29
69731;SHT31;56996;48.138;11.538;2024-02-04T14:14:47;12.74;56.32
69731;SHT31;56996;48.138;11.538;2024-02-04T14:17:13;12.69;56.43
69731;SHT31;56996;48.138;11.538;2024-02-04T14:19:40;12.63;56.65
69731;SHT31;56996;48.138;11.538;2024-02-04T14:22:07;12.66;56.65
69731;SHT31;56996;48.138;11.538;2024-02-04T14:24:34;12.70;56.61
69731;SHT31;56996;48.138;11.538;2024-02-04T14:27:01;12.65;56.80
69731;SHT31;56996;48.138;11.538;2024-02-04T14:29:28;12.64;56.96
69731;SHT31;56996;48.138;11.538;2024-02-04T14:31:54;12.64;56.97
69731;SHT31;56996;48.138;11.538;2024-02-04T14:34:22;12.61;57.03
69731;SHT31;56996;48.138;11.538;2024-02-04T14:36:49;12.59;57.13
69731;SHT31;56996;48.138;11.538;2024-02-04T14:39:16;12.55;57.22
69731;SHT31;56996;48.138;11.538;2024-02-04T14:41:43;12.53;57.17
69731;SHT31;56996;48.138;11.538;2024-02-04T14:44:10;12.47;57.31
69731;SHT31;56996;48.138;11.538;2024-02-04T14:46:37;12.47;57.41
69731;SHT31;56996;48.138;11.538;2024-02-04T14:49:05;12.50;57.37
69731;SHT31;56996;48.138;11.538;2024-02-04T14:51:37;12.53;57.33
69731;SHT31;56996;48.138;11.538;2024-02-04T14:54:05;12.50;57.43
69731;SHT31;56996;48.138;11.538;2024-02-04T14:56:41;12.48;57.58
69731;SHT31;56996;48.138;11.538;2024-02-04T14:59:09;12.47;57.65
69731;SHT31;56996;48.138;11.538;2024-02-04T15:01:48;12.41;57.84
69731;SHT31;56996;48.138;11.538;2024-02-04T15:04:16;12.38;58.01
69731;SHT31;56996;48.138;11.538;2024-02-04T15:06:43;12.40;58.05
69731;SHT31;56996;48.138;11.538;2024-02-04T15:09:11;12.40;58.13
69731;SHT31;56996;48.138;11.538;2024-02-04T15:11:38;12.40;58.20
69731;SHT31;56996;48.138;11.538;2024-02-04T15:14:05;12.41;58.19
69731;SHT31;56996;48.138;11.538;2024-02-04T15:16:34;12.42;58.12
69731;SHT31;56996;48.138;11.538;2024-02-04T15:19:05;12.36;58.27
69731;SHT31;56996;48.138;11.538;2024-02-04T15:21:33;12.36;58.35
69731;SHT31;56996;48.138;11.538;2024-02-04T15:24:00;12.34;58.42
69731;SHT31;56996;48.138;11.538;2024-02-04T15:26:34;12.37;58.41
69731;SHT31;56996;48.138;11.538;2024-02-04T15:29:06;12.40;58.40
69731;SHT31;56996;48.138;11.538;2024-02-04T15:31:34;12.39;58.39
69731;SHT31;56996;48.138;11.538;2024-02-04T15:34:02;12.37;58.49
69731;SHT31;56996;48.138;11.538;2024-02-04T15:36:32;12.40;58.50
69731;SHT31;56996;48.138;11.538;2024-02-04T15:38:59;12.40;58.52
69731;SHT31;56996;48.138;11.538;2024-02-04T15:41:29;12.38;58.60
69731;SHT31;56996;48.138;11.538;2024-02-04T15:43:55;12.37;58.60
69731;SHT31;56996;48.138;11.538;2024-02-04T15:46:22;12.34;58.70
69731;SHT31;56996;48.138;11.538;2024-02-04T15:48:51;12.32;58.67